Accueil
METAR-TAF:

METAR-TAF

Aéroports :

Piney Island, Caroline du Nord, États-Unis

latitude: 35-01-20N, longitude: 076-27-45W, altitude: 5 m

Observation

Le bulletin a été fait il y a 49 minutes, à 00:56 UTC
Vent 5 kt de sud
Température 13°C
Humidité 94%
Pression 1018 hPa
Visibilité: 14.5 km
Ciel clair

METAR: KNBT 120056Z AUTO 18005KT 9SM CLR 13/12 A3006 RMK AO2 SLP185 T01330117

Heure: 20:45 (01:45 UTC)


TAF: absent

Observations et prévisions météorologiques de plus de 4000 aéroports (messages METAR et TAF).

Les stations disponibles sont représentées par des disques jaunes et rouges sur la carte.

Passer la souris dessus pour voir le nom de la station.

Cliquer dessus pour voir les observations et prévisions météorologiques.

Pour changer de carte: cliquez sur les boutons verts avec une croix noire pour zoomer, sur le bouton vert avec un tiret pour effectuer un zoom arrière, ou sur les flèches vertes pour les cartes adjacentes.


METAR-TAF: